createdAt,value
2023-05-09T00:00:38.406Z,12.90
2023-05-09T00:03:05.984Z,12.80
2023-05-09T00:05:33.790Z,12.80
2023-05-09T00:08:01.501Z,12.80
2023-05-09T00:10:29.103Z,12.80
2023-05-09T00:12:57.129Z,12.70
2023-05-09T00:15:26.080Z,12.60
2023-05-09T00:17:54.607Z,12.70
2023-05-09T00:20:22.333Z,12.60
2023-05-09T00:22:49.881Z,12.60
2023-05-09T00:25:17.720Z,12.60
2023-05-09T00:27:45.292Z,12.60
2023-05-09T00:30:13.157Z,12.60
2023-05-09T00:32:41.786Z,12.60
2023-05-09T00:35:10.209Z,12.50
2023-05-09T00:37:38.347Z,12.50
2023-05-09T00:40:07.562Z,12.50
2023-05-09T00:42:36.057Z,12.50
2023-05-09T00:45:04.089Z,12.50
2023-05-09T00:47:32.025Z,12.50
2023-05-09T00:49:59.791Z,12.60
2023-05-09T00:52:27.696Z,12.60
2023-05-09T00:54:56.476Z,12.60
2023-05-09T00:57:24.119Z,12.70
2023-05-09T00:59:51.726Z,12.70
2023-05-09T01:02:19.960Z,12.80
2023-05-09T01:04:48.444Z,15.10
2023-05-09T01:07:38.076Z,12.80
2023-05-09T01:10:29.700Z,12.90
2023-05-09T01:13:10.766Z,12.90
2023-05-09T01:16:00.273Z,12.90
2023-05-09T01:18:52.918Z,12.90
2023-05-09T01:21:29.293Z,12.90
2023-05-09T01:24:03.799Z,12.90
2023-05-09T01:26:59.364Z,13.00
2023-05-09T01:29:48.451Z,12.90
2023-05-09T01:32:28.073Z,12.90
2023-05-09T01:34:59.391Z,12.90
2023-05-09T01:37:33.626Z,12.90
2023-05-09T01:40:10.471Z,12.80
2023-05-09T01:42:49.700Z,12.70
2023-05-09T01:45:18.349Z,12.90
2023-05-09T01:47:49.013Z,12.60
2023-05-09T01:50:19.097Z,12.60
2023-05-09T01:52:53.240Z,12.60
2023-05-09T01:55:25.664Z,12.50
2023-05-09T01:57:54.781Z,12.50
2023-05-09T02:00:23.902Z,12.50
2023-05-09T02:02:52.895Z,12.50
2023-05-09T02:05:22.714Z,12.50
2023-05-09T02:07:50.511Z,12.40
2023-05-09T02:10:20.827Z,12.50
2023-05-09T02:12:48.460Z,12.50
2023-05-09T02:15:16.265Z,12.50
2023-05-09T02:17:44.098Z,12.50
2023-05-09T02:20:11.788Z,12.60
2023-05-09T02:22:43.668Z,12.60
2023-05-09T02:25:15.423Z,12.60
2023-05-09T02:27:46.010Z,12.60
2023-05-09T02:30:25.121Z,12.60
2023-05-09T02:33:01.218Z,12.70
2023-05-09T02:35:29.331Z,12.70
2023-05-09T02:37:59.676Z,12.70
2023-05-09T02:40:30.669Z,12.70
2023-05-09T02:42:58.218Z,12.70
2023-05-09T02:45:26.192Z,12.70
2023-05-09T02:47:53.877Z,12.70
2023-05-09T02:50:23.864Z,12.70
2023-05-09T02:52:51.511Z,12.70
2023-05-09T02:55:19.072Z,12.70
2023-05-09T02:57:46.733Z,12.80
2023-05-09T03:00:14.865Z,12.80
2023-05-09T03:02:42.509Z,12.80
2023-05-09T03:05:16.250Z,12.80
2023-05-09T03:07:44.780Z,12.80
2023-05-09T03:10:12.331Z,12.80
2023-05-09T03:12:40.257Z,12.80
2023-05-09T03:15:08.854Z,12.80
2023-05-09T03:17:38.315Z,12.90
2023-05-09T03:20:07.816Z,12.90
2023-05-09T03:22:35.448Z,12.80
2023-05-09T03:25:06.479Z,12.80
2023-05-09T03:27:34.071Z,12.70
2023-05-09T03:30:02.300Z,12.70
2023-05-09T03:32:30.011Z,12.60
2023-05-09T03:34:57.674Z,12.60
2023-05-09T03:37:27.352Z,12.60
2023-05-09T03:39:55.343Z,12.50
2023-05-09T03:42:23.603Z,12.40
2023-05-09T03:44:55.017Z,12.40
2023-05-09T03:47:24.091Z,12.30
2023-05-09T03:49:51.595Z,12.20
2023-05-09T03:52:21.943Z,12.20
2023-05-09T03:54:49.659Z,12.10
2023-05-09T03:57:17.579Z,12.10
2023-05-09T03:59:46.771Z,12.10
2023-05-09T04:02:17.601Z,12.00
2023-05-09T04:04:48.347Z,12.00
2023-05-09T04:07:19.050Z,11.80
2023-05-09T04:09:47.336Z,11.80
2023-05-09T04:12:14.901Z,11.70
2023-05-09T04:14:43.312Z,11.70
2023-05-09T04:17:11.015Z,11.60
2023-05-09T04:19:38.700Z,11.60
2023-05-09T04:22:06.451Z,11.50
2023-05-09T04:24:34.280Z,11.40
2023-05-09T04:27:02.231Z,11.30
2023-05-09T04:29:29.958Z,11.30
2023-05-09T04:31:58.203Z,11.20
2023-05-09T04:34:27.825Z,11.30
2023-05-09T04:36:57.363Z,11.20
2023-05-09T04:39:25.440Z,11.10
2023-05-09T04:42:02.700Z,11.10
2023-05-09T04:44:30.490Z,11.10
2023-05-09T04:46:59.047Z,11.10
2023-05-09T04:49:26.663Z,11.10
2023-05-09T04:51:54.193Z,11.10
2023-05-09T04:54:21.973Z,11.00
2023-05-09T04:56:53.263Z,11.10
2023-05-09T04:59:24.370Z,11.00
2023-05-09T05:01:52.683Z,11.00
2023-05-09T05:04:22.030Z,11.00
2023-05-09T05:06:49.820Z,11.10
2023-05-09T05:09:17.512Z,11.10
2023-05-09T05:11:58.430Z,11.10
2023-05-09T05:14:28.922Z,11.10
2023-05-09T05:16:56.691Z,11.10
2023-05-09T05:19:25.017Z,11.10
2023-05-09T05:21:52.623Z,11.20
2023-05-09T05:24:20.450Z,11.20
2023-05-09T05:26:48.375Z,11.20
2023-05-09T05:29:16.337Z,11.30
2023-05-09T05:31:43.926Z,11.40
2023-05-09T05:34:11.517Z,11.40
2023-05-09T05:36:39.259Z,11.40
2023-05-09T05:39:07.227Z,11.50
2023-05-09T05:41:34.823Z,11.60
2023-05-09T05:44:03.099Z,11.60
2023-05-09T05:46:30.747Z,11.70
2023-05-09T05:48:58.906Z,11.70
2023-05-09T05:51:26.788Z,11.70
2023-05-09T05:53:54.401Z,11.80
2023-05-09T05:56:23.166Z,11.80
2023-05-09T05:58:51.103Z,11.90
2023-05-09T06:01:19.928Z,11.90
2023-05-09T06:03:49.868Z,12.00
2023-05-09T06:06:17.447Z,12.10
2023-05-09T06:08:45.069Z,12.10
2023-05-09T06:11:12.584Z,12.20
2023-05-09T06:13:40.240Z,12.30
2023-05-09T06:16:18.769Z,12.40
2023-05-09T06:18:49.678Z,12.40
2023-05-09T06:21:17.486Z,12.80
2023-05-09T06:23:57.879Z,12.80
2023-05-09T06:26:33.474Z,13.00
2023-05-09T06:29:01.146Z,13.20
2023-05-09T06:31:28.726Z,13.30
2023-05-09T06:33:56.329Z,13.40
2023-05-09T06:36:23.974Z,13.60
2023-05-09T06:38:51.529Z,13.50
2023-05-09T06:41:19.142Z,13.60
2023-05-09T06:43:46.737Z,13.70
2023-05-09T06:46:14.472Z,13.70
2023-05-09T06:48:42.463Z,13.70
2023-05-09T06:51:11.494Z,13.80
2023-05-09T06:53:39.040Z,14.00
2023-05-09T06:56:06.789Z,14.00
2023-05-09T06:58:34.361Z,14.20
2023-05-09T07:01:02.175Z,14.40
2023-05-09T07:03:30.060Z,14.40
2023-05-09T07:05:58.999Z,14.60
2023-05-09T07:08:26.995Z,14.80
2023-05-09T07:10:54.570Z,14.80
2023-05-09T07:13:22.173Z,15.00
2023-05-09T07:15:49.817Z,15.10
2023-05-09T07:18:17.376Z,15.10
2023-05-09T07:20:45.071Z,15.10
2023-05-09T07:23:12.570Z,15.10
2023-05-09T07:25:40.258Z,15.10
2023-05-09T07:28:07.869Z,15.10
2023-05-09T07:30:35.530Z,15.20
2023-05-09T07:33:03.143Z,15.30
2023-05-09T07:35:31.044Z,15.30
2023-05-09T07:37:58.513Z,15.40
2023-05-09T07:40:26.125Z,15.50
2023-05-09T07:42:55.142Z,15.60
2023-05-09T07:45:23.882Z,15.70
2023-05-09T07:47:51.662Z,15.80
2023-05-09T07:50:19.446Z,15.90
2023-05-09T07:52:46.992Z,15.90
2023-05-09T07:55:14.842Z,15.90
2023-05-09T07:57:42.448Z,16.00
2023-05-09T08:00:10.753Z,16.10
2023-05-09T08:02:44.030Z,16.20
2023-05-09T08:05:11.897Z,16.30
2023-05-09T08:07:39.418Z,16.40
2023-05-09T08:10:07.764Z,16.40
2023-05-09T08:12:35.390Z,16.30
2023-05-09T08:15:03.534Z,16.10
2023-05-09T08:17:32.735Z,16.00
2023-05-09T08:20:00.314Z,15.90
2023-05-09T08:22:27.824Z,15.70
2023-05-09T08:24:55.529Z,15.80
2023-05-09T08:27:23.048Z,16.50
2023-05-09T08:29:50.607Z,15.60
2023-05-09T08:32:19.938Z,15.60
2023-05-09T08:34:47.597Z,12.80
2023-05-09T08:37:15.613Z,15.40
2023-05-09T08:39:43.572Z,15.20
2023-05-09T08:42:11.397Z,15.20
2023-05-09T08:47:07.433Z,14.90
2023-05-09T08:49:35.731Z,15.00
2023-05-09T08:52:03.647Z,15.00
2023-05-09T08:54:31.708Z,15.00
2023-05-09T08:57:01.454Z,15.20
2023-05-09T08:59:29.981Z,15.20
2023-05-09T09:01:57.955Z,15.80
2023-05-09T09:04:25.799Z,15.90
2023-05-09T09:06:54.503Z,16.90
2023-05-09T09:09:23.392Z,17.20
2023-05-09T09:11:53.301Z,17.40
2023-05-09T09:14:27.694Z,17.40
2023-05-09T09:16:56.135Z,17.30
2023-05-09T09:19:29.858Z,17.30
2023-05-09T09:22:00.038Z,17.10
2023-05-09T09:24:27.711Z,17.20
2023-05-09T09:26:55.618Z,17.20
2023-05-09T09:29:23.292Z,17.50
2023-05-09T09:31:55.142Z,17.60
2023-05-09T09:34:23.843Z,17.50
2023-05-09T09:36:51.589Z,17.60
2023-05-09T09:39:19.417Z,17.70
2023-05-09T09:41:46.977Z,17.50
2023-05-09T09:44:17.178Z,17.50
2023-05-09T09:46:52.966Z,17.30
2023-05-09T09:49:22.820Z,17.20
2023-05-09T09:51:55.049Z,16.90
2023-05-09T09:54:23.173Z,16.90
2023-05-09T09:56:54.280Z,16.90
2023-05-09T09:59:26.619Z,17.30
2023-05-09T10:02:12.214Z,17.80
2023-05-09T10:04:43.398Z,17.80
2023-05-09T10:07:14.361Z,18.40
2023-05-09T10:09:44.027Z,18.70
2023-05-09T10:12:29.003Z,18.90
2023-05-09T10:15:07.021Z,18.90
2023-05-09T10:17:34.765Z,18.60
2023-05-09T10:20:06.373Z,18.30
2023-05-09T10:22:36.269Z,18.00
2023-05-09T10:25:08.254Z,17.90
2023-05-09T10:27:36.580Z,17.90
2023-05-09T10:30:22.479Z,18.20
2023-05-09T10:32:50.555Z,19.60
2023-05-09T10:35:19.775Z,20.50
2023-05-09T10:37:48.432Z,20.60
2023-05-09T10:40:16.628Z,21.50
2023-05-09T10:42:45.045Z,22.50
2023-05-09T10:45:13.407Z,22.60
2023-05-09T10:47:43.458Z,22.80
2023-05-09T10:50:15.456Z,22.70
2023-05-09T10:53:04.719Z,22.10
2023-05-09T10:55:48.663Z,22.00
2023-05-09T10:58:29.491Z,21.70
2023-05-09T11:00:59.291Z,21.60
2023-05-09T11:03:29.022Z,21.40
2023-05-09T11:05:58.062Z,21.50
2023-05-09T11:08:30.716Z,21.70
2023-05-09T11:11:07.048Z,22.10
2023-05-09T11:13:38.497Z,22.40
2023-05-09T11:16:09.418Z,22.20
2023-05-09T11:18:51.165Z,22.00
2023-05-09T11:21:20.439Z,22.20
2023-05-09T11:23:48.996Z,22.30
2023-05-09T11:26:17.270Z,22.50
2023-05-09T11:28:53.812Z,22.60
2023-05-09T11:31:21.825Z,22.50
2023-05-09T11:33:55.184Z,22.40
2023-05-09T11:36:30.100Z,22.20
2023-05-09T11:39:24.934Z,21.90
2023-05-09T11:41:53.667Z,21.60
2023-05-09T11:44:21.724Z,21.10
2023-05-09T11:46:49.748Z,21.10
2023-05-09T11:49:19.445Z,20.90
2023-05-09T11:51:47.060Z,20.20
2023-05-09T11:54:14.982Z,20.20
2023-05-09T11:56:43.195Z,19.40
2023-05-09T11:59:14.813Z,19.30
2023-05-09T12:01:42.597Z,18.90
2023-05-09T12:04:10.362Z,18.30
2023-05-09T12:06:38.038Z,18.00
2023-05-09T12:09:05.555Z,17.80
2023-05-09T12:11:35.011Z,17.60
2023-05-09T12:14:02.609Z,17.50
2023-05-09T12:16:31.849Z,17.40
2023-05-09T12:18:59.476Z,17.30
2023-05-09T12:21:28.372Z,17.20
2023-05-09T12:23:57.049Z,17.20
2023-05-09T12:26:24.586Z,17.10
2023-05-09T12:28:52.286Z,17.00
2023-05-09T12:31:20.862Z,16.90
2023-05-09T12:33:48.665Z,16.80
2023-05-09T12:36:16.779Z,16.60
2023-05-09T12:38:56.837Z,16.60
2023-05-09T12:43:55.394Z,16.40
2023-05-09T12:46:23.184Z,16.40
2023-05-09T12:48:51.777Z,16.40
2023-05-09T12:51:21.002Z,16.60
2023-05-09T12:53:48.712Z,17.20
2023-05-09T12:56:20.436Z,17.20
2023-05-09T12:58:51.259Z,18.80
2023-05-09T13:01:20.869Z,19.90
2023-05-09T13:03:52.964Z,20.10
2023-05-09T13:06:21.202Z,20.90
2023-05-09T13:08:59.076Z,21.60
2023-05-09T13:11:27.103Z,21.80
2023-05-09T13:13:55.236Z,21.50
2023-05-09T13:16:22.864Z,21.20
2023-05-09T13:18:50.424Z,20.50
2023-05-09T13:21:18.115Z,20.50
2023-05-09T13:23:45.853Z,20.00
2023-05-09T13:26:13.434Z,20.70
2023-05-09T13:28:41.147Z,20.00
2023-05-09T13:31:09.669Z,20.20
2023-05-09T13:33:37.266Z,20.40
2023-05-09T13:36:06.240Z,20.70
2023-05-09T13:38:37.156Z,21.20
2023-05-09T13:41:05.051Z,21.50
2023-05-09T13:43:32.799Z,21.80
2023-05-09T13:46:00.428Z,21.50
2023-05-09T13:48:28.129Z,21.40
2023-05-09T13:50:57.532Z,21.10
2023-05-09T13:53:25.070Z,20.80
2023-05-09T13:55:52.751Z,20.70
2023-05-09T13:58:20.270Z,20.50
2023-05-09T14:00:48.008Z,20.40
2023-05-09T14:03:15.529Z,20.10
2023-05-09T14:05:43.428Z,20.00
2023-05-09T14:08:11.129Z,19.60
2023-05-09T14:10:39.015Z,19.60
2023-05-09T14:13:08.383Z,19.40
2023-05-09T14:15:36.236Z,19.40
2023-05-09T14:18:03.985Z,19.30
2023-05-09T14:20:31.549Z,19.40
2023-05-09T14:23:00.742Z,19.50
2023-05-09T14:25:28.584Z,19.80
2023-05-09T14:27:56.167Z,20.10
2023-05-09T14:30:25.684Z,20.30
2023-05-09T14:32:53.309Z,20.40
2023-05-09T14:35:21.116Z,20.50
2023-05-09T14:37:48.689Z,20.50
2023-05-09T14:40:16.467Z,20.20
2023-05-09T14:42:44.326Z,20.00
2023-05-09T14:45:12.823Z,20.00
2023-05-09T14:47:41.244Z,19.80
2023-05-09T14:50:11.393Z,19.60
2023-05-09T14:52:38.963Z,19.50
2023-05-09T14:55:07.427Z,19.40
2023-05-09T14:57:35.133Z,19.30
2023-05-09T15:00:13.059Z,19.30
2023-05-09T15:05:12.716Z,19.20
2023-05-09T15:07:40.272Z,19.20
2023-05-09T15:10:08.186Z,19.10
2023-05-09T15:12:35.737Z,19.00
2023-05-09T15:15:17.468Z,18.90
2023-05-09T15:17:46.269Z,18.80
2023-05-09T15:20:18.270Z,18.80
2023-05-09T15:22:47.465Z,18.60
2023-05-09T15:25:16.391Z,18.60
2023-05-09T15:27:43.947Z,18.80
2023-05-09T15:30:12.026Z,18.80
2023-05-09T15:32:42.574Z,19.10
2023-05-09T15:35:10.725Z,19.20
2023-05-09T15:37:38.458Z,19.30
2023-05-09T15:40:07.525Z,19.30
2023-05-09T15:42:35.522Z,19.50
2023-05-09T15:45:03.916Z,19.60
2023-05-09T15:47:31.626Z,19.60
2023-05-09T15:49:59.269Z,19.80
2023-05-09T15:52:27.842Z,19.90
2023-05-09T15:54:56.207Z,19.90
2023-05-09T15:57:24.912Z,19.90
2023-05-09T15:59:55.209Z,19.80
2023-05-09T16:02:23.127Z,19.80
2023-05-09T16:04:51.010Z,19.80
2023-05-09T16:07:20.419Z,19.70
2023-05-09T16:09:48.159Z,19.80
2023-05-09T16:12:15.769Z,20.30
2023-05-09T16:14:43.322Z,20.30
2023-05-09T16:17:11.489Z,20.60
2023-05-09T16:19:39.125Z,20.80
2023-05-09T16:22:06.706Z,20.90
2023-05-09T16:24:34.334Z,21.00
2023-05-09T16:27:01.805Z,21.00
2023-05-09T16:29:29.349Z,21.00
2023-05-09T16:31:57.030Z,21.00
2023-05-09T16:34:24.692Z,21.00
2023-05-09T16:36:52.461Z,21.00
2023-05-09T16:39:20.002Z,21.00
2023-05-09T16:41:47.527Z,20.90
2023-05-09T16:44:15.465Z,20.60
2023-05-09T16:46:43.109Z,20.50
2023-05-09T16:49:11.194Z,20.30
2023-05-09T16:51:38.925Z,20.30
2023-05-09T16:54:06.711Z,20.30
2023-05-09T16:56:34.955Z,20.30
2023-05-09T16:59:03.287Z,20.40
2023-05-09T17:01:30.852Z,20.40
2023-05-09T17:03:58.616Z,20.40
2023-05-09T17:06:26.272Z,20.40
2023-05-09T17:08:54.156Z,20.30
2023-05-09T17:11:22.741Z,20.20
2023-05-09T17:13:50.349Z,19.80
2023-05-09T17:16:17.960Z,19.70
2023-05-09T17:18:47.427Z,19.60
2023-05-09T17:21:15.889Z,19.50
2023-05-09T17:23:43.926Z,19.50
2023-05-09T17:26:11.595Z,19.50
2023-05-09T17:28:39.144Z,19.40
2023-05-09T17:31:06.720Z,19.30
2023-05-09T17:33:34.453Z,19.20
2023-05-09T17:36:02.607Z,19.20
2023-05-09T17:41:15.159Z,19.00
2023-05-09T17:43:42.876Z,18.80
2023-05-09T17:46:10.589Z,18.70
2023-05-09T17:48:38.735Z,18.70
2023-05-09T17:51:06.451Z,18.60
2023-05-09T17:53:34.162Z,18.30
2023-05-09T17:56:03.025Z,18.30
2023-05-09T17:58:30.667Z,18.20
2023-05-09T18:00:59.679Z,18.10
2023-05-09T18:03:28.799Z,17.90
2023-05-09T18:05:57.265Z,17.70
2023-05-09T18:08:25.111Z,17.70
2023-05-09T18:10:54.622Z,17.60
2023-05-09T18:13:22.463Z,18.90
2023-05-09T18:15:50.143Z,17.30
2023-05-09T18:18:18.002Z,17.20
2023-05-09T18:20:47.136Z,17.10
2023-05-09T18:23:15.539Z,16.90
2023-05-09T18:25:43.070Z,16.90
2023-05-09T18:28:11.029Z,16.80
2023-05-09T18:30:39.093Z,16.60
2023-05-09T18:33:07.236Z,16.60
2023-05-09T18:35:35.039Z,16.60
2023-05-09T18:38:02.622Z,16.40
2023-05-09T18:40:30.133Z,16.30
2023-05-09T18:42:57.723Z,16.30
2023-05-09T18:45:25.334Z,16.20
2023-05-09T18:47:52.926Z,16.10
2023-05-09T18:50:20.430Z,16.10
2023-05-09T18:52:48.029Z,16.00
2023-05-09T18:55:15.635Z,15.90
2023-05-09T18:57:43.156Z,15.90
2023-05-09T19:00:11.654Z,15.80
2023-05-09T19:02:39.617Z,15.60
2023-05-09T19:05:08.057Z,15.60
2023-05-09T19:07:35.862Z,15.60
2023-05-09T19:10:05.472Z,15.40
2023-05-09T19:12:34.083Z,15.40
2023-05-09T19:15:02.714Z,15.40
2023-05-09T19:17:32.833Z,15.30
2023-05-09T19:20:02.429Z,15.30
2023-05-09T19:22:30.211Z,15.10
2023-05-09T19:24:58.439Z,15.00
2023-05-09T19:27:26.042Z,14.90
2023-05-09T19:29:54.083Z,14.80
2023-05-09T19:34:49.824Z,14.70
2023-05-09T19:37:17.668Z,14.50
2023-05-09T19:39:45.608Z,14.40
2023-05-09T19:42:14.330Z,17.10
2023-05-09T19:44:43.519Z,14.10
2023-05-09T19:47:13.064Z,14.10
2023-05-09T19:49:43.436Z,14.00
2023-05-09T19:52:11.955Z,13.80
2023-05-09T19:54:40.214Z,13.80
2023-05-09T19:57:08.834Z,13.60
2023-05-09T19:59:36.993Z,13.50
2023-05-09T20:02:05.347Z,13.30
2023-05-09T20:04:35.655Z,13.30
2023-05-09T20:07:05.157Z,13.20
2023-05-09T20:09:33.076Z,13.20
2023-05-09T20:12:03.308Z,13.00
2023-05-09T20:14:32.027Z,12.90
2023-05-09T20:17:00.822Z,12.70
2023-05-09T20:19:29.225Z,12.70
2023-05-09T20:21:58.084Z,12.60
2023-05-09T20:24:27.242Z,12.60
2023-05-09T20:26:56.502Z,12.50
2023-05-09T20:29:25.573Z,12.40
2023-05-09T20:31:54.812Z,12.40
2023-05-09T20:36:53.893Z,12.20
2023-05-09T20:39:21.648Z,12.10
2023-05-09T20:41:50.437Z,12.00
2023-05-09T20:44:18.667Z,11.90
2023-05-09T20:46:46.515Z,11.80
2023-05-09T20:49:15.511Z,11.70
2023-05-09T20:51:43.075Z,11.70
2023-05-09T20:54:10.676Z,11.70
2023-05-09T20:56:38.231Z,11.60
2023-05-09T20:59:06.078Z,11.50
2023-05-09T21:01:36.859Z,11.50
2023-05-09T21:04:05.882Z,11.40
2023-05-09T21:06:33.808Z,11.40
2023-05-09T21:09:01.362Z,11.30
2023-05-09T21:11:28.912Z,11.20
2023-05-09T21:13:56.673Z,11.10
2023-05-09T21:16:24.252Z,10.90
2023-05-09T21:18:51.926Z,10.90
2023-05-09T21:21:19.476Z,10.70
2023-05-09T21:23:47.043Z,10.70
2023-05-09T21:26:14.671Z,10.60
2023-05-09T21:28:42.221Z,10.60
2023-05-09T21:31:11.282Z,10.50
2023-05-09T21:33:39.258Z,10.40
2023-05-09T21:36:07.722Z,10.30
2023-05-09T21:38:35.432Z,10.30
2023-05-09T21:41:02.988Z,10.20
2023-05-09T21:43:30.610Z,10.20
2023-05-09T21:45:58.175Z,10.10
2023-05-09T21:48:25.982Z,10.10
2023-05-09T21:50:53.532Z,10.00
2023-05-09T21:53:21.113Z,10.00
2023-05-09T21:55:48.719Z,10.00
2023-05-09T21:58:16.325Z,10.00
2023-05-09T22:00:44.230Z,9.90
2023-05-09T22:03:11.931Z,9.90
2023-05-09T22:05:39.485Z,9.80
2023-05-09T22:10:34.874Z,9.80
2023-05-09T22:13:02.611Z,9.70
2023-05-09T22:15:30.378Z,9.80
2023-05-09T22:17:58.132Z,9.70
2023-05-09T22:20:26.016Z,9.70
2023-05-09T22:22:53.631Z,9.60
2023-05-09T22:25:21.189Z,9.50
2023-05-09T22:30:23.861Z,9.40
2023-05-09T22:32:51.739Z,9.30
2023-05-09T22:35:19.342Z,9.30
2023-05-09T22:37:46.871Z,9.20
2023-05-09T22:40:14.823Z,9.20
2023-05-09T22:42:42.519Z,9.10
2023-05-09T22:45:10.460Z,9.10
2023-05-09T22:47:38.258Z,9.10
2023-05-09T22:50:06.495Z,9.00
2023-05-09T22:52:34.059Z,9.10
2023-05-09T22:55:01.591Z,9.10
2023-05-09T22:57:29.786Z,9.10
2023-05-09T22:59:57.287Z,9.10
2023-05-09T23:02:25.854Z,9.10
2023-05-09T23:04:53.557Z,9.10
2023-05-09T23:07:21.223Z,9.10
2023-05-09T23:09:48.885Z,9.10
2023-05-09T23:12:16.485Z,9.00
2023-05-09T23:14:43.979Z,9.00
2023-05-09T23:17:11.901Z,8.90
2023-05-09T23:19:39.394Z,8.90
2023-05-09T23:22:06.943Z,8.90
2023-05-09T23:24:34.949Z,8.70
2023-05-09T23:27:02.872Z,8.70
2023-05-09T23:29:30.510Z,8.60
2023-05-09T23:31:58.099Z,8.70
2023-05-09T23:34:25.666Z,8.50
2023-05-09T23:36:53.217Z,8.40
2023-05-09T23:39:20.739Z,8.40
2023-05-09T23:41:48.470Z,8.30
2023-05-09T23:44:16.260Z,8.30
2023-05-09T23:46:43.819Z,8.30
2023-05-09T23:49:13.397Z,8.20
2023-05-09T23:51:41.223Z,8.20
2023-05-09T23:54:08.970Z,8.10
2023-05-09T23:56:36.550Z,8.10
2023-05-09T23:59:04.130Z,8.10
